METARs and TAFs

Description

Watch: https://www.youtube.com/watch?v=bqXlMwp-yQY 1. First, explain the difference between a METAR and a TAF.  2. Decode METAR: KPBI 101958Z 35020KT 1/2SM R10L/1000V1600FT +TSRA FG SCT004 BKN015CB OVC030 19/19 A3006 RMK AO2 LTG DSNT ALQDS CONS LTGICCG OHD-ALQDS TS OHD-ALQDS MOV NE P0055 T01940194 3. Decode METAR: SPECI KBNA 221914Z 21008KT 170V260 1SM R02L/3500VP6000FT -RA SCT039 BKN048 BKN055 OVC130 20/17 A3012 RMK AO2 RAB48 PRESRR SLP194 P0000 T02000172 4. Decode TAF: KPBI 101848Z 1019/1118 15013KT P6SM VCTS SCT025CB SCT035 BKN070    TEMPO 1020/1022 VRB15G30KT 3SM TSRA SCT010 BKN030CB BKN060    FM110000 VRB05KT P6SM VCSH SCT020 BKN040    FM111500 31012KT P6SM VCSH BKN035 5. Decode TAF: TAF KCVS 101805Z 1018/1124 22010G20KT 9999 FEW200 QNH3030INS    BECMG 1100/1101 23009KT 9999 FEW250 QNH3032INS    BECMG 1114/1115 24012KT 9999 SKC QNH3025INS    BECMG 1118/1119 25015G25KT 9999 SKC QNH3018INS TX21/1022Z TN08/1110Z Grading This assignment is worth 75 points: 15 points for explaining the difference between a METAR/TAF and 15 points for each correctly decoded METAR/TAF.

Calculate your paper price
Pages (550 words)
Approximate price: -